createdAt,value
2022-09-23T00:04:43.583Z,100953.00
2022-09-23T00:09:42.894Z,100949.00
2022-09-23T00:14:43.071Z,100947.00
2022-09-23T00:19:44.668Z,100950.00
2022-09-23T00:24:43.395Z,100946.20
2022-09-23T00:29:42.716Z,100946.60
2022-09-23T00:34:41.612Z,100947.60
2022-09-23T00:39:41.282Z,100947.20
2022-09-23T00:44:55.907Z,100939.20
2022-09-23T00:50:05.100Z,100935.20
2022-09-23T00:55:10.147Z,100943.20
2022-09-23T01:00:12.993Z,100941.80
2022-09-23T01:05:14.839Z,100941.40
2022-09-23T01:10:17.375Z,100938.80
2022-09-23T01:15:23.268Z,100940.00
2022-09-23T01:20:49.607Z,100938.80
2022-09-23T01:26:09.319Z,100942.60
2022-09-23T01:31:18.906Z,100936.80
2022-09-23T01:36:29.059Z,100932.80
2022-09-23T01:41:51.956Z,100928.20
2022-09-23T01:46:56.944Z,100928.00
2022-09-23T01:52:07.976Z,100933.40
2022-09-23T01:57:16.824Z,100931.20
2022-09-23T02:02:22.496Z,100932.40
2022-09-23T02:07:28.767Z,100929.00
2022-09-23T02:12:35.495Z,100924.40
2022-09-23T02:17:43.869Z,100928.40
2022-09-23T02:22:52.820Z,100924.20
2022-09-23T02:28:02.248Z,100930.20
2022-09-23T02:33:10.304Z,100927.00
2022-09-23T02:38:26.192Z,100928.80
2022-09-23T02:43:40.410Z,100918.40
2022-09-23T02:48:44.406Z,100923.80
2022-09-23T02:53:46.147Z,100926.40
2022-09-23T02:58:47.143Z,100933.80
2022-09-23T03:03:57.425Z,100930.60
2022-09-23T03:09:05.488Z,100934.60
2022-09-23T03:14:18.096Z,100933.20
2022-09-23T03:19:30.025Z,100932.60
2022-09-23T03:24:32.280Z,100928.60
2022-09-23T03:29:32.353Z,100933.80
2022-09-23T03:34:36.764Z,100930.20
2022-09-23T03:39:43.041Z,100929.40
2022-09-23T03:44:46.549Z,100925.00
2022-09-23T03:49:48.488Z,100920.80
2022-09-23T03:54:48.027Z,100911.80
2022-09-23T03:59:47.123Z,100917.00
2022-09-23T04:04:47.131Z,100914.00
2022-09-23T04:09:46.329Z,100912.00
2022-09-23T04:14:46.428Z,100911.20
2022-09-23T04:19:47.109Z,100910.80
2022-09-23T04:24:46.361Z,100912.80
2022-09-23T04:29:46.724Z,100913.40
2022-09-23T04:34:45.596Z,100916.60
2022-09-23T04:39:44.413Z,100919.00
2022-09-23T04:44:43.542Z,100920.80
2022-09-23T04:49:42.383Z,100924.00
2022-09-23T04:54:41.865Z,100921.80
2022-09-23T04:59:41.447Z,100917.40
2022-09-23T05:04:41.815Z,100919.80
2022-09-23T05:09:41.639Z,100911.60
2022-09-23T05:14:41.971Z,100912.40
2022-09-23T05:19:41.772Z,100909.20
2022-09-23T05:24:40.712Z,100913.80
2022-09-23T05:29:40.601Z,100914.20
2022-09-23T05:34:40.253Z,100920.60
2022-09-23T05:39:39.310Z,100917.60
2022-09-23T05:44:38.262Z,100917.20
2022-09-23T05:49:58.059Z,100923.80
2022-09-23T05:54:56.551Z,100937.80
2022-09-23T05:59:56.154Z,100933.20
2022-09-23T06:04:55.129Z,100934.20
2022-09-23T06:09:55.920Z,100940.00
2022-09-23T06:14:55.359Z,100936.20
2022-09-23T06:19:54.295Z,100936.20
2022-09-23T06:24:52.898Z,100943.80
2022-09-23T06:29:52.734Z,100940.60
2022-09-23T06:34:52.568Z,100942.60
2022-09-23T06:39:58.990Z,100935.80
2022-09-23T06:45:17.933Z,100932.40
2022-09-23T06:50:24.235Z,100938.00
2022-09-23T06:55:23.806Z,100938.80
2022-09-23T07:00:23.775Z,100935.60
2022-09-23T07:05:23.219Z,100942.40
2022-09-23T07:10:22.971Z,100936.00
2022-09-23T07:15:22.041Z,100945.20
2022-09-23T07:20:21.598Z,100951.60
2022-09-23T07:25:20.485Z,100945.00
2022-09-23T07:30:25.192Z,100946.40
2022-09-23T07:35:28.268Z,100941.00
2022-09-23T07:40:27.757Z,100944.00
2022-09-23T07:45:26.963Z,100936.20
2022-09-23T07:50:25.999Z,100938.20
2022-09-23T07:55:25.814Z,100932.00
2022-09-23T08:00:24.734Z,100922.80
2022-09-23T08:05:24.474Z,100927.20
2022-09-23T08:10:23.694Z,100922.60
2022-09-23T08:15:24.708Z,100920.20
2022-09-23T08:20:37.653Z,100915.40
2022-09-23T08:25:37.168Z,100912.20
2022-09-23T08:30:40.348Z,100904.80
2022-09-23T08:35:40.941Z,100903.60
2022-09-23T08:40:44.684Z,100907.60
2022-09-23T08:45:46.078Z,100902.80
2022-09-23T08:50:50.232Z,100902.80
2022-09-23T08:55:53.706Z,100895.80
2022-09-23T09:01:08.073Z,100895.00
2022-09-23T09:06:08.506Z,100893.60
2022-09-23T09:11:09.791Z,100894.40
2022-09-23T09:16:57.965Z,100879.80
2022-09-23T09:21:55.816Z,100873.40
2022-09-23T09:26:55.215Z,100874.40
2022-09-23T09:31:56.543Z,100882.60
2022-09-23T09:37:07.549Z,100875.80
2022-09-23T09:42:07.978Z,100869.60
2022-09-23T09:47:41.534Z,100869.20
2022-09-23T09:52:43.389Z,100865.80
2022-09-23T09:57:49.787Z,100857.80
2022-09-23T10:02:53.054Z,100854.80
2022-09-23T10:07:51.761Z,100856.40
2022-09-23T10:12:52.223Z,100848.20
2022-09-23T10:17:54.908Z,100842.60
2022-09-23T10:22:56.918Z,100841.80
2022-09-23T10:27:55.789Z,100837.80
2022-09-23T10:32:57.275Z,100829.00
2022-09-23T10:37:59.549Z,100828.60
2022-09-23T10:43:42.047Z,100817.20
2022-09-23T10:49:01.071Z,100819.20
2022-09-23T10:54:10.971Z,100817.00
2022-09-23T10:59:43.227Z,100820.60
2022-09-23T11:05:20.346Z,100818.60
2022-09-23T11:11:00.666Z,100821.60
2022-09-23T11:16:10.659Z,100827.80
2022-09-23T11:21:32.281Z,100817.00
2022-09-23T11:26:53.216Z,100814.40
2022-09-23T11:32:08.384Z,100807.40
2022-09-23T11:37:14.160Z,100803.20
2022-09-23T11:42:24.159Z,100808.00
2022-09-23T11:47:30.860Z,100798.80
2022-09-23T11:52:37.183Z,100792.80
2022-09-23T11:57:49.156Z,100787.40
2022-09-23T12:03:06.594Z,100788.60
2022-09-23T12:08:14.532Z,100791.00
2022-09-23T12:13:22.977Z,100787.60
2022-09-23T12:18:57.036Z,100785.80
2022-09-23T12:24:21.081Z,100781.40
2022-09-23T12:29:20.004Z,100777.60
2022-09-23T12:34:31.931Z,100774.80
2022-09-23T12:39:37.506Z,100775.80
2022-09-23T12:44:42.454Z,100764.20
2022-09-23T12:49:42.498Z,100762.00
2022-09-23T12:54:42.976Z,100757.20
2022-09-23T13:00:01.722Z,100759.40
2022-09-23T13:05:28.797Z,100747.60
2022-09-23T13:10:40.183Z,100751.20
2022-09-23T13:15:41.350Z,100746.80
2022-09-23T13:20:43.764Z,100738.60
2022-09-23T13:25:47.097Z,100732.40
2022-09-23T13:30:54.547Z,100729.80
2022-09-23T13:35:58.843Z,100721.80
2022-09-23T13:41:02.104Z,100712.00
2022-09-23T13:46:05.394Z,100701.80
2022-09-23T13:51:12.590Z,100705.80
2022-09-23T13:56:16.592Z,100704.60
2022-09-23T14:01:33.446Z,100703.60
2022-09-23T14:06:40.677Z,100699.80
2022-09-23T14:11:40.539Z,100703.00
2022-09-23T14:16:42.530Z,100701.00
2022-09-23T14:21:43.553Z,100695.40
2022-09-23T14:26:44.190Z,100695.80
2022-09-23T14:31:44.513Z,100690.40
2022-09-23T14:37:01.403Z,100692.60
2022-09-23T14:42:00.912Z,100690.00
2022-09-23T14:47:03.211Z,100689.60
2022-09-23T14:52:08.331Z,100681.60
2022-09-23T14:57:29.480Z,100676.00
2022-09-23T15:02:37.299Z,100672.60
2022-09-23T15:07:39.542Z,100677.20
2022-09-23T15:12:44.577Z,100675.80
2022-09-23T15:17:43.896Z,100674.00
2022-09-23T15:22:50.178Z,100673.40
2022-09-23T15:28:03.502Z,100672.20
2022-09-23T15:33:03.296Z,100668.00
2022-09-23T15:38:04.514Z,100662.60
2022-09-23T15:43:20.525Z,100659.40
2022-09-23T15:48:24.189Z,100660.80
2022-09-23T15:53:30.209Z,100666.80
2022-09-23T15:58:30.205Z,100672.20
2022-09-23T16:03:30.077Z,100676.40
2022-09-23T16:08:29.714Z,100678.40
2022-09-23T16:13:29.249Z,100682.60
2022-09-23T16:18:31.323Z,100674.40
2022-09-23T16:23:41.487Z,100680.20
2022-09-23T16:28:50.132Z,100685.00
2022-09-23T16:33:51.504Z,100682.20
2022-09-23T16:38:55.681Z,100683.00
2022-09-23T16:43:55.806Z,100688.20
2022-09-23T16:48:57.420Z,100690.80
2022-09-23T16:53:59.458Z,100681.80
2022-09-23T16:59:04.368Z,100684.20
2022-09-23T17:04:06.866Z,100680.40
2022-09-23T17:09:10.248Z,100680.00
2022-09-23T17:14:13.121Z,100673.60
2022-09-23T17:19:14.225Z,100669.20
2022-09-23T17:24:15.847Z,100662.60
2022-09-23T17:29:18.807Z,100670.60
2022-09-23T17:34:21.129Z,100666.00
2022-09-23T17:39:26.127Z,100669.20
2022-09-23T17:44:25.297Z,100670.00
2022-09-23T17:49:34.903Z,100674.40
2022-09-23T17:54:36.212Z,100675.20
2022-09-23T17:59:46.604Z,100684.20
2022-09-23T18:04:48.843Z,100687.80
2022-09-23T18:09:52.787Z,100689.00
2022-09-23T18:14:53.230Z,100695.60
2022-09-23T18:19:52.417Z,100696.60
2022-09-23T18:24:51.783Z,100700.60
2022-09-23T18:29:51.501Z,100705.40
2022-09-23T18:34:51.391Z,100703.40
2022-09-23T18:39:50.271Z,100698.20
2022-09-23T18:44:54.410Z,100699.60
2022-09-23T18:50:11.359Z,100705.20
2022-09-23T18:55:12.677Z,100704.40
2022-09-23T19:00:15.596Z,100710.40
2022-09-23T19:05:15.504Z,100707.20
2022-09-23T19:10:14.894Z,100711.40
2022-09-23T19:15:15.185Z,100704.00
2022-09-23T19:20:15.508Z,100704.60
2022-09-23T19:25:14.833Z,100705.20
2022-09-23T19:30:16.313Z,100708.20
2022-09-23T19:35:16.328Z,100710.80
2022-09-23T19:40:17.933Z,100709.20
2022-09-23T19:45:18.324Z,100707.60
2022-09-23T19:50:28.004Z,100708.80
2022-09-23T19:55:29.770Z,100703.80
2022-09-23T20:00:29.165Z,100705.20
2022-09-23T20:05:29.893Z,100702.20
2022-09-23T20:10:28.704Z,100706.60
2022-09-23T20:15:29.315Z,100701.80
2022-09-23T20:20:29.088Z,100702.20
2022-09-23T20:25:28.622Z,100703.20
2022-09-23T20:30:29.897Z,100697.60
2022-09-23T20:35:33.109Z,100701.20
2022-09-23T20:40:32.099Z,100696.40
2022-09-23T20:45:33.577Z,100695.20
2022-09-23T20:50:35.676Z,100693.60
2022-09-23T20:55:36.393Z,100696.40
2022-09-23T21:00:36.402Z,100698.20
2022-09-23T21:05:37.621Z,100696.00
2022-09-23T21:10:37.519Z,100695.80
2022-09-23T21:15:41.855Z,100691.40
2022-09-23T21:20:40.974Z,100687.00
2022-09-23T21:25:40.405Z,100689.20
2022-09-23T21:30:39.378Z,100686.60
2022-09-23T21:35:38.448Z,100684.40
2022-09-23T21:40:55.274Z,100686.80
2022-09-23T21:45:59.794Z,100688.80
2022-09-23T21:51:04.983Z,100684.60
2022-09-23T21:56:10.910Z,100685.00
2022-09-23T22:01:16.565Z,100689.80
2022-09-23T22:06:19.755Z,100682.60
2022-09-23T22:11:38.704Z,100680.80
2022-09-23T22:16:39.122Z,100680.60
2022-09-23T22:21:41.376Z,100686.00
2022-09-23T22:26:43.256Z,100682.20
2022-09-23T22:31:59.041Z,100675.20
2022-09-23T22:36:58.053Z,100672.40
2022-09-23T22:41:58.690Z,100675.80
2022-09-23T22:46:59.028Z,100671.40
2022-09-23T22:51:57.956Z,100671.00
2022-09-23T22:56:56.761Z,100670.20
2022-09-23T23:01:55.554Z,100665.80
2022-09-23T23:06:54.805Z,100659.60
2022-09-23T23:11:53.635Z,100654.00
2022-09-23T23:16:53.639Z,100654.20
2022-09-23T23:21:53.984Z,100646.60
2022-09-23T23:26:54.016Z,100652.00
2022-09-23T23:31:53.071Z,100650.00
2022-09-23T23:36:55.502Z,100647.80
2022-09-23T23:41:57.269Z,100650.00
2022-09-23T23:46:57.223Z,100646.80
2022-09-23T23:51:56.238Z,100639.80
2022-09-23T23:56:55.373Z,100636.40
